Terminal Aerodrome Forecast
Issued by NWS

Home | Current Version | Previous Version | Text Only | Print | Product List | Glossary On
Versions: 1 2 3 4 5 6 7 8 9 10 11 12 13 14 15 16 17 18 19 20 21 22 23 24 25 26 27 28 29 30 31 32 33 34 35 36 37 38 39 40 41 42 43 44 45 46 47 48 49 50
000
FTUS42 KCAE 281125
TAFDNL
TAF
KDNL 281125Z 2812/2912 27005KT P6SM SKC
     FM281500 25008KT P6SM SCT090
     FM281800 25014G24KT P6SM BKN080
     FM290000 28010KT P6SM OVC100
     FM290200 28008KT P6SM SCT100=

USA.gov is the U.S. government's official web portal to all federal, state and local government web resources and services.